KAHN/AHN METAR and TAF weather

Enter ICAO airport designator
Station Type Date Time Source
KAHN METAR 2019/04/22 23:51 UTC NOAA

KAHN 222351Z AUTO 18003KT 10SM CLR 23/10 A3011 RMK AO2 SLP194 T02330100 10267 20233 56003


Station Type Date Time Source
KAHN Decoded METAR 2019/04/22 23:51 UTC NOAA

ATHENS BEN EPPS AIRPORT, GA, United States (KAHN) 33-57N 083-20W 244M
Apr 22, 2019 - 07:51 PM EDT / 2019.04.22 2351 UTC
Wind: from the S (180 degrees) at 3 MPH (3 KT):0
Visibility: 10 mile(s):0
Sky conditions: clear
Temperature: 73.9 F (23.3 C)
Dew Point: 50.0 F (10.0 C)
Relative Humidity: 42%
Pressure (altimeter): 30.11 in. Hg (1019 hPa)
Pressure tendency: 0.01 inches (0.3 hPa) lower than three hours ago
ob: KAHN 222351Z AUTO 18003KT 10SM CLR 23/10 A3011 RMK AO2 SLP194 T02330100 10267 20233 56003
cycle: 0

Station Type Date Time Source
KAHN TAF 2019/04/22 18:33 UTC NOAA

TAF KAHN 221730Z 2218/2318 VRB03KT P6SM SKC
FM231500 24007KT P6SM SCT250

Example: see airport list